sensor_id;sensor_type;location;lat;lon;timestamp;pressure;altitude;pressure_sealevel;temperature;humidity
46614;BME280;32338;50.430;6.806;2023-05-20T00:00:34;66392.09;;;8.89;100.00
46614;BME280;32338;50.430;6.806;2023-05-20T00:03:00;66382.16;;;8.82;100.00
46614;BME280;32338;50.430;6.806;2023-05-20T00:05:27;66388.72;;;8.86;100.00
46614;BME280;32338;50.430;6.806;2023-05-20T00:07:53;66382.53;;;8.80;100.00
46614;BME280;32338;50.430;6.806;2023-05-20T00:10:20;66372.25;;;8.75;100.00
46614;BME280;32338;50.430;6.806;2023-05-20T00:12:46;66370.16;;;8.69;100.00
46614;BME280;32338;50.430;6.806;2023-05-20T00:15:14;66360.44;;;8.65;100.00
46614;BME280;32338;50.430;6.806;2023-05-20T00:17:41;66367.53;;;8.69;100.00
46614;BME280;32338;50.430;6.806;2023-05-20T00:20:08;66362.69;;;8.67;100.00
46614;BME280;32338;50.430;6.806;2023-05-20T00:22:34;66361.16;;;8.60;100.00
46614;BME280;32338;50.430;6.806;2023-05-20T00:25:01;66352.72;;;8.53;100.00
46614;BME280;32338;50.430;6.806;2023-05-20T00:27:28;66347.09;;;8.48;100.00
46614;BME280;32338;50.430;6.806;2023-05-20T00:29:54;66339.19;;;8.40;100.00
46614;BME280;32338;50.430;6.806;2023-05-20T00:32:23;66332.66;;;8.37;100.00
46614;BME280;32338;50.430;6.806;2023-05-20T00:34:59;66333.38;;;8.33;100.00
46614;BME280;32338;50.430;6.806;2023-05-20T00:37:26;66326.28;;;8.36;100.00
46614;BME280;32338;50.430;6.806;2023-05-20T00:39:53;66327.97;;;8.30;100.00
46614;BME280;32338;50.430;6.806;2023-05-20T00:42:20;66323.28;;;8.31;100.00
46614;BME280;32338;50.430;6.806;2023-05-20T00:44:46;66320.09;;;8.23;100.00
46614;BME280;32338;50.430;6.806;2023-05-20T00:47:13;66314.25;;;8.15;100.00
46614;BME280;32338;50.430;6.806;2023-05-20T00:49:42;66312.41;;;8.18;100.00
46614;BME280;32338;50.430;6.806;2023-05-20T00:52:09;66308.47;;;8.15;100.00
46614;BME280;32338;50.430;6.806;2023-05-20T00:54:35;66307.34;;;8.14;100.00
46614;BME280;32338;50.430;6.806;2023-05-20T00:57:04;66296.66;;;8.04;100.00
46614;BME280;32338;50.430;6.806;2023-05-20T00:59:32;66295.16;;;7.98;100.00
46614;BME280;32338;50.430;6.806;2023-05-20T01:01:58;66291.22;;;7.94;100.00
46614;BME280;32338;50.430;6.806;2023-05-20T01:04:25;66279.25;;;7.88;100.00
46614;BME280;32338;50.430;6.806;2023-05-20T01:06:53;66286.34;;;7.92;100.00
46614;BME280;32338;50.430;6.806;2023-05-20T01:09:21;66274.72;;;7.84;100.00
46614;BME280;32338;50.430;6.806;2023-05-20T01:11:52;66276.78;;;7.83;100.00
46614;BME280;32338;50.430;6.806;2023-05-20T01:14:23;66273.63;;;7.83;100.00
46614;BME280;32338;50.430;6.806;2023-05-20T01:16:54;66274.72;;;7.84;100.00
46614;BME280;32338;50.430;6.806;2023-05-20T01:19:26;66263.50;;;7.73;100.00
46614;BME280;32338;50.430;6.806;2023-05-20T01:22:00;66265.75;;;7.75;100.00
46614;BME280;32338;50.430;6.806;2023-05-20T01:24:29;66269.28;;;7.74;100.00
46614;BME280;32338;50.430;6.806;2023-05-20T01:26:57;66259.00;;;7.69;100.00
46614;BME280;32338;50.430;6.806;2023-05-20T01:29:23;66258.66;;;7.71;100.00
46614;BME280;32338;50.430;6.806;2023-05-20T01:31:51;66260.31;;;7.73;100.00
46614;BME280;32338;50.430;6.806;2023-05-20T01:34:19;66264.41;;;7.72;100.00
46614;BME280;32338;50.430;6.806;2023-05-20T01:36:46;66250.56;;;7.61;100.00
46614;BME280;32338;50.430;6.806;2023-05-20T01:39:13;66251.13;;;7.62;100.00
46614;BME280;32338;50.430;6.806;2023-05-20T01:41:41;66260.47;;;7.68;100.00
46614;BME280;32338;50.430;6.806;2023-05-20T01:44:08;66255.47;;;7.71;100.00
46614;BME280;32338;50.430;6.806;2023-05-20T01:46:35;66270.63;;;7.77;100.00
46614;BME280;32338;50.430;6.806;2023-05-20T01:49:01;66265.59;;;7.80;100.00
46614;BME280;32338;50.430;6.806;2023-05-20T01:51:28;66270.81;;;7.80;100.00
46614;BME280;32338;50.430;6.806;2023-05-20T01:53:57;66258.59;;;7.64;100.00
46614;BME280;32338;50.430;6.806;2023-05-20T01:56:24;66250.38;;;7.59;100.00
46614;BME280;32338;50.430;6.806;2023-05-20T01:58:52;66238.75;;;7.51;100.00
46614;BME280;32338;50.430;6.806;2023-05-20T02:01:19;66221.34;;;7.35;100.00
46614;BME280;32338;50.430;6.806;2023-05-20T02:03:45;66205.97;;;7.18;100.00
46614;BME280;32338;50.430;6.806;2023-05-20T02:06:12;66177.19;;;6.96;100.00
46614;BME280;32338;50.430;6.806;2023-05-20T02:08:38;66169.47;;;6.85;100.00
46614;BME280;32338;50.430;6.806;2023-05-20T02:11:05;66164.41;;;6.80;100.00
46614;BME280;32338;50.430;6.806;2023-05-20T02:13:32;66148.69;;;6.65;100.00
46614;BME280;32338;50.430;6.806;2023-05-20T02:15:59;66155.22;;;6.69;100.00
46614;BME280;32338;50.430;6.806;2023-05-20T02:18:26;66169.66;;;6.87;100.00
46614;BME280;32338;50.430;6.806;2023-05-20T02:20:52;66185.41;;;7.02;100.00
46614;BME280;32338;50.430;6.806;2023-05-20T02:23:19;66200.22;;;7.18;100.00
46614;BME280;32338;50.430;6.806;2023-05-20T02:25:46;66209.34;;;7.21;100.00
46614;BME280;32338;50.430;6.806;2023-05-20T02:28:12;66221.88;;;7.28;100.00
46614;BME280;32338;50.430;6.806;2023-05-20T02:30:39;66194.53;;;7.05;100.00
46614;BME280;32338;50.430;6.806;2023-05-20T02:33:07;66168.72;;;6.81;100.00
46614;BME280;32338;50.430;6.806;2023-05-20T02:35:35;66167.97;;;6.86;100.00
46614;BME280;32338;50.430;6.806;2023-05-20T02:38:01;66190.47;;;7.06;100.00
46614;BME280;32338;50.430;6.806;2023-05-20T02:40:28;66201.50;;;7.14;100.00
46614;BME280;32338;50.430;6.806;2023-05-20T02:42:54;66200.00;;;7.15;100.00
46614;BME280;32338;50.430;6.806;2023-05-20T02:45:21;66211.25;;;7.25;100.00
46614;BME280;32338;50.430;6.806;2023-05-20T02:47:47;66213.69;;;7.30;100.00
46614;BME280;32338;50.430;6.806;2023-05-20T02:50:15;66208.44;;;7.23;100.00
46614;BME280;32338;50.430;6.806;2023-05-20T02:52:42;66175.28;;;6.92;100.00
46614;BME280;32338;50.430;6.806;2023-05-20T02:55:10;66159.34;;;6.75;100.00
46614;BME280;32338;50.430;6.806;2023-05-20T02:57:37;66159.91;;;6.76;100.00
46614;BME280;32338;50.430;6.806;2023-05-20T03:00:05;66172.47;;;6.90;100.00
46614;BME280;32338;50.430;6.806;2023-05-20T03:02:32;66180.34;;;6.97;100.00
46614;BME280;32338;50.430;6.806;2023-05-20T03:04:59;66179.41;;;6.98;100.00
46614;BME280;32338;50.430;6.806;2023-05-20T03:07:28;66192.69;;;7.08;100.00
46614;BME280;32338;50.430;6.806;2023-05-20T03:09:54;66201.69;;;7.17;100.00
46614;BME280;32338;50.430;6.806;2023-05-20T03:12:23;66194.75;;;7.08;100.00
46614;BME280;32338;50.430;6.806;2023-05-20T03:14:50;66187.06;;;7.03;100.00
46614;BME280;32338;50.430;6.806;2023-05-20T03:17:19;66188.94;;;7.00;100.00
46614;BME280;32338;50.430;6.806;2023-05-20T03:19:46;66177.91;;;6.92;100.00
46614;BME280;32338;50.430;6.806;2023-05-20T03:22:12;66168.91;;;6.84;100.00
46614;BME280;32338;50.430;6.806;2023-05-20T03:24:40;66176.97;;;6.94;100.00
46614;BME280;32338;50.430;6.806;2023-05-20T03:27:08;66186.13;;;6.97;100.00
46614;BME280;32338;50.430;6.806;2023-05-20T03:29:35;66171.34;;;6.89;100.00
46614;BME280;32338;50.430;6.806;2023-05-20T03:32:02;66160.84;;;6.74;100.00
46614;BME280;32338;50.430;6.806;2023-05-20T03:34:28;66162.72;;;6.78;100.00
46614;BME280;32338;50.430;6.806;2023-05-20T03:36:55;66161.63;;;6.77;100.00
46614;BME280;32338;50.430;6.806;2023-05-20T03:39:24;66163.13;;;6.84;100.00
46614;BME280;32338;50.430;6.806;2023-05-20T03:41:52;66173.59;;;6.91;100.00
46614;BME280;32338;50.430;6.806;2023-05-20T03:44:18;66177.72;;;6.97;100.00
46614;BME280;32338;50.430;6.806;2023-05-20T03:46:45;66183.72;;;7.00;100.00
46614;BME280;32338;50.430;6.806;2023-05-20T03:49:12;66186.53;;;7.03;100.00
46614;BME280;32338;50.430;6.806;2023-05-20T03:51:38;66191.16;;;7.02;100.00
46614;BME280;32338;50.430;6.806;2023-05-20T03:54:05;66189.69;;;7.03;100.00
46614;BME280;32338;50.430;6.806;2023-05-20T03:56:31;66185.41;;;7.02;100.00
46614;BME280;32338;50.430;6.806;2023-05-20T03:58:59;66193.81;;;7.09;100.00
46614;BME280;32338;50.430;6.806;2023-05-20T04:01:26;66189.69;;;7.03;100.00
46614;BME280;32338;50.430;6.806;2023-05-20T04:03:52;66192.28;;;7.03;100.00
46614;BME280;32338;50.430;6.806;2023-05-20T04:06:19;66187.44;;;7.01;100.00
46614;BME280;32338;50.430;6.806;2023-05-20T04:08:46;66181.09;;;7.00;100.00
46614;BME280;32338;50.430;6.806;2023-05-20T04:11:13;66188.19;;;7.04;100.00
46614;BME280;32338;50.430;6.806;2023-05-20T04:13:39;66180.91;;;6.97;100.00
46614;BME280;32338;50.430;6.806;2023-05-20T04:16:07;66178.66;;;6.95;100.00
46614;BME280;32338;50.430;6.806;2023-05-20T04:18:34;66182.38;;;6.96;100.00
46614;BME280;32338;50.430;6.806;2023-05-20T04:21:03;66190.81;;;7.04;100.00
46614;BME280;32338;50.430;6.806;2023-05-20T04:23:29;66189.13;;;7.03;100.00
46614;BME280;32338;50.430;6.806;2023-05-20T04:25:56;66184.28;;;7.01;100.00
46614;BME280;32338;50.430;6.806;2023-05-20T04:28:26;66190.47;;;7.06;100.00
46614;BME280;32338;50.430;6.806;2023-05-20T04:30:58;66188.41;;;7.07;100.00
46614;BME280;32338;50.430;6.806;2023-05-20T04:33:27;66189.53;;;7.08;100.00
46614;BME280;32338;50.430;6.806;2023-05-20T04:35:53;66197.19;;;7.12;100.00
46614;BME280;32338;50.430;6.806;2023-05-20T04:38:23;66201.34;;;7.19;100.00
46614;BME280;32338;50.430;6.806;2023-05-20T04:40:54;66205.06;;;7.20;100.00
46614;BME280;32338;50.430;6.806;2023-05-20T04:43:22;66205.06;;;7.20;100.00
46614;BME280;32338;50.430;6.806;2023-05-20T04:45:49;66208.28;;;7.27;100.00
46614;BME280;32338;50.430;6.806;2023-05-20T04:48:17;66212.38;;;7.26;100.00
46614;BME280;32338;50.430;6.806;2023-05-20T04:50:46;66214.59;;;7.28;100.00
46614;BME280;32338;50.430;6.806;2023-05-20T04:53:12;66213.13;;;7.29;100.00
46614;BME280;32338;50.430;6.806;2023-05-20T04:55:39;66210.09;;;7.24;100.00
46614;BME280;32338;50.430;6.806;2023-05-20T04:58:07;66222.63;;;7.31;100.00
46614;BME280;32338;50.430;6.806;2023-05-20T05:00:39;66227.19;;;7.42;100.00
46614;BME280;32338;50.430;6.806;2023-05-20T05:03:05;66240.25;;;7.50;100.00
46614;BME280;32338;50.430;6.806;2023-05-20T05:05:33;66247.19;;;7.58;100.00
46614;BME280;32338;50.430;6.806;2023-05-20T05:08:01;66250.56;;;7.61;100.00
46614;BME280;32338;50.430;6.806;2023-05-20T05:10:29;66241.03;;;7.53;100.00
46614;BME280;32338;50.430;6.806;2023-05-20T05:12:55;66247.00;;;7.56;100.00
46614;BME280;32338;50.430;6.806;2023-05-20T05:15:22;66259.16;;;7.65;100.00
46614;BME280;32338;50.430;6.806;2023-05-20T05:17:49;66263.88;;;7.71;100.00
46614;BME280;32338;50.430;6.806;2023-05-20T05:20:16;66278.31;;;7.89;100.00
46614;BME280;32338;50.430;6.806;2023-05-20T05:22:43;66290.88;;;8.03;100.00
46614;BME280;32338;50.430;6.806;2023-05-20T05:25:12;66300.38;;;8.05;100.00
46614;BME280;32338;50.430;6.806;2023-05-20T05:27:38;66299.47;;;8.06;100.00
46614;BME280;32338;50.430;6.806;2023-05-20T05:30:06;66300.97;;;8.05;100.00
46614;BME280;32338;50.430;6.806;2023-05-20T05:32:33;66299.47;;;8.06;100.00
46614;BME280;32338;50.430;6.806;2023-05-20T05:34:59;66296.81;;;7.99;100.00
46614;BME280;32338;50.430;6.806;2023-05-20T05:37:26;66292.53;;;7.98;100.00
46614;BME280;32338;50.430;6.806;2023-05-20T05:39:52;66296.66;;;8.04;100.00
46614;BME280;32338;50.430;6.806;2023-05-20T05:42:20;66311.44;;;8.13;100.00
46614;BME280;32338;50.430;6.806;2023-05-20T05:44:47;66318.94;;;8.22;100.00
46614;BME280;32338;50.430;6.806;2023-05-20T05:47:14;66328.50;;;8.31;100.00
46614;BME280;32338;50.430;6.806;2023-05-20T05:49:40;66337.72;;;8.41;100.00
46614;BME280;32338;50.430;6.806;2023-05-20T05:52:07;66349.34;;;8.50;100.00
46614;BME280;32338;50.430;6.806;2023-05-20T05:54:34;66360.59;;;8.60;100.00
46614;BME280;32338;50.430;6.806;2023-05-20T05:57:00;66372.97;;;8.71;100.00
46614;BME280;32338;50.430;6.806;2023-05-20T05:59:28;66379.00;;;8.82;100.00
46614;BME280;32338;50.430;6.806;2023-05-20T06:01:55;66388.91;;;8.88;100.00
46614;BME280;32338;50.430;6.806;2023-05-20T06:04:21;66396.03;;;8.92;100.00
46614;BME280;32338;50.430;6.806;2023-05-20T06:06:48;66399.06;;;8.98;100.00
46614;BME280;32338;50.430;6.806;2023-05-20T06:09:14;66419.47;;;9.12;100.00
46614;BME280;32338;50.430;6.806;2023-05-20T06:11:41;66433.38;;;9.29;100.00
46614;BME280;32338;50.430;6.806;2023-05-20T06:14:08;66446.91;;;9.41;100.00
46614;BME280;32338;50.430;6.806;2023-05-20T06:16:36;66463.38;;;9.52;100.00
46614;BME280;32338;50.430;6.806;2023-05-20T06:19:03;66466.59;;;9.60;100.00
46614;BME280;32338;50.430;6.806;2023-05-20T06:21:30;66461.50;;;9.55;100.00
46614;BME280;32338;50.430;6.806;2023-05-20T06:23:57;66463.03;;;9.61;100.00
46614;BME280;32338;50.430;6.806;2023-05-20T06:26:23;66469.97;;;9.63;100.00
46614;BME280;32338;50.430;6.806;2023-05-20T06:28:50;66470.53;;;9.63;100.00
46614;BME280;32338;50.430;6.806;2023-05-20T06:31:17;66481.41;;;9.68;100.00
46614;BME280;32338;50.430;6.806;2023-05-20T06:33:45;66480.28;;;9.74;100.00
46614;BME280;32338;50.430;6.806;2023-05-20T06:36:12;66478.63;;;9.73;100.00
46614;BME280;32338;50.430;6.806;2023-05-20T06:38:38;66477.84;;;9.70;100.00
46614;BME280;32338;50.430;6.806;2023-05-20T06:41:05;66484.25;;;9.78;100.00
46614;BME280;32338;50.430;6.806;2023-05-20T06:43:32;66490.81;;;9.82;100.00
46614;BME280;32338;50.430;6.806;2023-05-20T06:45:59;66504.13;;;9.92;100.00
46614;BME280;32338;50.430;6.806;2023-05-20T06:48:25;66511.09;;;10.00;100.00
46614;BME280;32338;50.430;6.806;2023-05-20T06:50:53;66534.72;;;10.22;100.00
46614;BME280;32338;50.430;6.806;2023-05-20T06:53:21;66543.19;;;10.30;100.00
46614;BME280;32338;50.430;6.806;2023-05-20T06:55:47;66551.84;;;10.40;100.00
46614;BME280;32338;50.430;6.806;2023-05-20T06:58:14;66559.19;;;10.47;100.00
46614;BME280;32338;50.430;6.806;2023-05-20T07:00:40;66570.81;;;10.55;100.00
46614;BME280;32338;50.430;6.806;2023-05-20T07:03:07;66576.44;;;10.60;100.00
46614;BME280;32338;50.430;6.806;2023-05-20T07:05:35;66583.56;;;10.64;100.00
46614;BME280;32338;50.430;6.806;2023-05-20T07:08:04;66587.53;;;10.68;100.00
46614;BME280;32338;50.430;6.806;2023-05-20T07:10:30;66594.09;;;10.79;100.00
46614;BME280;32338;50.430;6.806;2023-05-20T07:12:57;66602.34;;;10.84;100.00
46614;BME280;32338;50.430;6.806;2023-05-20T07:15:24;66608.56;;;10.90;100.00
46614;BME280;32338;50.430;6.806;2023-05-20T07:17:50;66610.41;;;10.86;100.00
46614;BME280;32338;50.430;6.806;2023-05-20T07:20:17;66614.19;;;10.95;100.00
46614;BME280;32338;50.430;6.806;2023-05-20T07:22:44;66628.66;;;11.06;100.00
46614;BME280;32338;50.430;6.806;2023-05-20T07:25:12;66643.31;;;11.19;100.00
46614;BME280;32338;50.430;6.806;2023-05-20T07:27:39;66661.91;;;11.36;100.00
46614;BME280;32338;50.430;6.806;2023-05-20T07:30:06;66675.09;;;11.50;100.00
46614;BME280;32338;50.430;6.806;2023-05-20T07:32:33;66688.06;;;11.62;100.00
46614;BME280;32338;50.430;6.806;2023-05-20T07:35:00;66705.53;;;11.78;100.00
46614;BME280;32338;50.430;6.806;2023-05-20T07:37:27;66716.63;;;11.86;100.00
46614;BME280;32338;50.430;6.806;2023-05-20T07:39:53;66725.31;;;11.96;100.00
46614;BME280;32338;50.430;6.806;2023-05-20T07:42:21;66720.00;;;11.89;100.00
46614;BME280;32338;50.430;6.806;2023-05-20T07:44:48;66715.13;;;11.87;100.00
46614;BME280;32338;50.430;6.806;2023-05-20T07:47:14;66729.81;;;12.00;100.00
46614;BME280;32338;50.430;6.806;2023-05-20T07:49:41;66744.47;;;12.14;100.00
46614;BME280;32338;50.430;6.806;2023-05-20T07:52:08;66747.50;;;12.19;100.00
46614;BME280;32338;50.430;6.806;2023-05-20T07:54:35;66758.78;;;12.29;100.00
46614;BME280;32338;50.430;6.806;2023-05-20T07:57:01;66774.94;;;12.42;100.00
46614;BME280;32338;50.430;6.806;2023-05-20T07:59:29;66796.41;;;12.61;100.00
46614;BME280;32338;50.430;6.806;2023-05-20T08:01:56;66771.41;;;12.43;100.00
46614;BME280;32338;50.430;6.806;2023-05-20T08:04:23;66783.59;;;12.45;100.00
46614;BME280;32338;50.430;6.806;2023-05-20T08:06:51;66790.56;;;12.54;100.00
46614;BME280;32338;50.430;6.806;2023-05-20T08:09:18;66797.91;;;12.68;100.00
46614;BME280;32338;50.430;6.806;2023-05-20T08:11:45;66811.84;;;12.78;100.00
46614;BME280;32338;50.430;6.806;2023-05-20T08:14:12;66827.81;;;12.88;100.00
46614;BME280;32338;50.430;6.806;2023-05-20T08:16:41;66837.63;;;12.99;100.00
46614;BME280;32338;50.430;6.806;2023-05-20T08:19:07;66843.84;;;13.05;100.00
46614;BME280;32338;50.430;6.806;2023-05-20T08:21:34;66851.34;;;13.07;100.00
46614;BME280;32338;50.430;6.806;2023-05-20T08:24:00;66855.13;;;13.15;100.00
46614;BME280;32338;50.430;6.806;2023-05-20T08:26:27;66862.09;;;13.24;100.00
46614;BME280;32338;50.430;6.806;2023-05-20T08:28:54;66879.22;;;13.42;100.00
46614;BME280;32338;50.430;6.806;2023-05-20T08:31:20;66895.25;;;13.52;100.00
46614;BME280;32338;50.430;6.806;2023-05-20T08:33:48;66870.56;;;13.32;100.00
46614;BME280;32338;50.430;6.806;2023-05-20T08:36:15;66890.91;;;13.43;100.00
46614;BME280;32338;50.430;6.806;2023-05-20T08:38:43;66891.28;;;13.48;100.00
46614;BME280;32338;50.430;6.806;2023-05-20T08:41:10;66902.59;;;13.58;100.00
46614;BME280;32338;50.430;6.806;2023-05-20T08:43:36;66906.53;;;13.62;100.00
46614;BME280;32338;50.430;6.806;2023-05-20T08:46:03;66915.75;;;13.66;100.00
46614;BME280;32338;50.430;6.806;2023-05-20T08:48:32;66890.72;;;13.48;100.00
46614;BME280;32338;50.430;6.806;2023-05-20T08:51:02;66885.28;;;13.45;100.00
46614;BME280;32338;50.430;6.806;2023-05-20T08:53:29;66896.19;;;13.50;100.00
46614;BME280;32338;50.430;6.806;2023-05-20T08:55:58;66875.81;;;13.32;100.00
46614;BME280;32338;50.430;6.806;2023-05-20T08:58:27;66867.34;;;13.24;100.00
46614;BME280;32338;50.430;6.806;2023-05-20T09:00:54;66894.50;;;13.49;100.00
46614;BME280;32338;50.430;6.806;2023-05-20T09:03:21;66943.06;;;13.93;100.00
46614;BME280;32338;50.430;6.806;2023-05-20T09:05:48;66934.41;;;13.90;100.00
46614;BME280;32338;50.430;6.806;2023-05-20T09:08:16;66939.13;;;13.89;100.00
46614;BME280;32338;50.430;6.806;2023-05-20T09:10:43;66949.31;;;13.99;100.00
46614;BME280;32338;50.430;6.806;2023-05-20T09:13:10;66962.47;;;14.13;100.00
46614;BME280;32338;50.430;6.806;2023-05-20T09:15:37;66970.19;;;14.18;100.00
46614;BME280;32338;50.430;6.806;2023-05-20T09:18:06;67005.06;;;14.54;100.00
46614;BME280;32338;50.430;6.806;2023-05-20T09:20:33;67030.53;;;14.78;100.00
46614;BME280;32338;50.430;6.806;2023-05-20T09:23:02;67040.31;;;14.82;100.00
46614;BME280;32338;50.430;6.806;2023-05-20T09:25:31;67036.56;;;14.81;100.00
46614;BME280;32338;50.430;6.806;2023-05-20T09:27:58;66977.72;;;14.27;100.00
46614;BME280;32338;50.430;6.806;2023-05-20T09:30:24;66954.75;;;14.01;100.00
46614;BME280;32338;50.430;6.806;2023-05-20T09:32:54;66955.69;;;14.07;100.00
46614;BME280;32338;50.430;6.806;2023-05-20T09:35:21;66972.28;;;14.17;100.00
46614;BME280;32338;50.430;6.806;2023-05-20T09:37:50;66959.09;;;14.10;100.00
46614;BME280;32338;50.430;6.806;2023-05-20T09:40:19;66947.03;;;13.97;100.00
46614;BME280;32338;50.430;6.806;2023-05-20T09:42:52;66949.31;;;13.99;100.00
46614;BME280;32338;50.430;6.806;2023-05-20T09:45:19;66958.31;;;14.07;100.00
46614;BME280;32338;50.430;6.806;2023-05-20T09:47:49;66966.44;;;14.17;100.00
46614;BME280;32338;50.430;6.806;2023-05-20T09:50:16;66973.59;;;14.21;100.00
46614;BME280;32338;50.430;6.806;2023-05-20T09:52:46;66954.94;;;14.04;100.00
46614;BME280;32338;50.430;6.806;2023-05-20T09:55:14;66968.13;;;14.18;100.00
46614;BME280;32338;50.430;6.806;2023-05-20T09:57:41;66952.13;;;14.01;100.00
46614;BME280;32338;50.430;6.806;2023-05-20T10:00:11;66945.53;;;13.98;100.00
46614;BME280;32338;50.430;6.806;2023-05-20T10:02:42;66951.72;;;14.03;100.00
46614;BME280;32338;50.430;6.806;2023-05-20T10:05:13;66952.88;;;14.04;100.00
46614;BME280;32338;50.430;6.806;2023-05-20T10:10:40;66947.22;;;13.99;100.00
46614;BME280;32338;50.430;6.806;2023-05-20T10:13:18;66960.41;;;14.14;100.00
46614;BME280;32338;50.430;6.806;2023-05-20T10:15:54;66971.53;;;14.21;100.00
46614;BME280;32338;50.430;6.806;2023-05-20T10:18:34;66984.69;;;14.36;100.00
46614;BME280;32338;50.430;6.806;2023-05-20T10:21:02;66996.03;;;14.46;100.00
46614;BME280;32338;50.430;6.806;2023-05-20T10:23:29;67015.06;;;14.61;100.00
46614;BME280;32338;50.430;6.806;2023-05-20T10:25:57;67035.03;;;14.74;100.00
46614;BME280;32338;50.430;6.806;2023-05-20T10:28:28;67035.59;;;14.82;100.00
46614;BME280;32338;50.430;6.806;2023-05-20T10:30:57;67033.72;;;14.78;100.00
46614;BME280;32338;50.430;6.806;2023-05-20T10:33:24;67011.66;;;14.58;100.00
46614;BME280;32338;50.430;6.806;2023-05-20T10:35:52;67013.75;;;14.57;100.00
46614;BME280;32338;50.430;6.806;2023-05-20T10:38:19;67014.88;;;14.58;100.00
46614;BME280;32338;50.430;6.806;2023-05-20T10:40:46;67017.31;;;14.63;100.00
46614;BME280;32338;50.430;6.806;2023-05-20T10:43:14;67034.13;;;14.76;100.00
46614;BME280;32338;50.430;6.806;2023-05-20T10:45:48;67026.38;;;14.71;100.00
46614;BME280;32338;50.430;6.806;2023-05-20T10:48:27;67035.81;;;14.78;100.00
46614;BME280;32338;50.430;6.806;2023-05-20T10:50:54;67055.59;;;14.96;100.00
46614;BME280;32338;50.430;6.806;2023-05-20T10:53:23;67062.00;;;15.04;100.00
46614;BME280;32338;50.430;6.806;2023-05-20T10:55:51;67078.78;;;15.17;100.00
46614;BME280;32338;50.430;6.806;2023-05-20T10:58:20;67089.53;;;15.27;100.00
46614;BME280;32338;50.430;6.806;2023-05-20T11:00:47;67067.28;;;15.11;100.00
46614;BME280;32338;50.430;6.806;2023-05-20T11:03:15;67078.59;;;15.21;100.00
46614;BME280;32338;50.430;6.806;2023-05-20T11:05:43;67075.38;;;15.21;100.00
46614;BME280;32338;50.430;6.806;2023-05-20T11:08:11;67097.66;;;15.36;100.00
46614;BME280;32338;50.430;6.806;2023-05-20T11:10:38;67109.91;;;15.52;100.00
46614;BME280;32338;50.430;6.806;2023-05-20T11:13:04;67122.53;;;15.59;100.00
46614;BME280;32338;50.430;6.806;2023-05-20T11:15:34;67105.56;;;15.44;100.00
46614;BME280;32338;50.430;6.806;2023-05-20T11:18:02;67112.16;;;15.47;100.00
46614;BME280;32338;50.430;6.806;2023-05-20T11:20:30;67097.06;;;15.36;100.00
46614;BME280;32338;50.430;6.806;2023-05-20T11:23:01;67105.19;;;15.38;100.00
46614;BME280;32338;50.430;6.806;2023-05-20T11:25:28;67112.56;;;15.45;100.00
46614;BME280;32338;50.430;6.806;2023-05-20T11:27:55;67129.16;;;15.70;100.00
46614;BME280;32338;50.430;6.806;2023-05-20T11:30:22;67172.94;;;16.05;100.00
46614;BME280;32338;50.430;6.806;2023-05-20T11:32:56;67170.28;;;16.05;100.00
46614;BME280;32338;50.430;6.806;2023-05-20T11:35:24;67174.22;;;16.09;100.00
46614;BME280;32338;50.430;6.806;2023-05-20T11:37:55;67143.09;;;15.80;100.00
46614;BME280;32338;50.430;6.806;2023-05-20T11:40:24;67136.88;;;15.75;100.00
46614;BME280;32338;50.430;6.806;2023-05-20T11:42:53;67144.59;;;15.79;100.00
46614;BME280;32338;50.430;6.806;2023-05-20T11:45:20;67151.25;;;15.83;100.00
46614;BME280;32338;50.430;6.806;2023-05-20T11:47:57;67165.00;;;15.98;100.00
46614;BME280;32338;50.430;6.806;2023-05-20T11:50:24;67155.94;;;15.89;100.00
46614;BME280;32338;50.430;6.806;2023-05-20T11:52:56;67168.41;;;16.01;100.00
46614;BME280;32338;50.430;6.806;2023-05-20T11:55:24;67182.75;;;16.16;100.00
46614;BME280;32338;50.430;6.806;2023-05-20T11:57:51;67179.16;;;16.11;100.00
46614;BME280;32338;50.430;6.806;2023-05-20T12:00:17;67161.22;;;15.97;100.00
46614;BME280;32338;50.430;6.806;2023-05-20T12:02:44;67128.00;;;15.62;100.00
46614;BME280;32338;50.430;6.806;2023-05-20T12:05:11;67114.06;;;15.51;100.00
46614;BME280;32338;50.430;6.806;2023-05-20T12:07:37;67111.22;;;15.49;100.00
46614;BME280;32338;50.430;6.806;2023-05-20T12:10:05;67144.25;;;15.74;100.00
46614;BME280;32338;50.430;6.806;2023-05-20T12:12:33;67202.00;;;16.34;100.00
46614;BME280;32338;50.430;6.806;2023-05-20T12:15:00;67237.66;;;16.66;100.00
46614;BME280;32338;50.430;6.806;2023-05-20T12:17:27;67303.19;;;17.24;100.00
46614;BME280;32338;50.430;6.806;2023-05-20T12:19:54;67268.09;;;16.92;100.00
46614;BME280;32338;50.430;6.806;2023-05-20T12:22:20;67270.16;;;16.91;100.00
46614;BME280;32338;50.430;6.806;2023-05-20T12:24:47;67263.53;;;16.88;100.00
46614;BME280;32338;50.430;6.806;2023-05-20T12:27:13;67276.94;;;16.97;100.00
46614;BME280;32338;50.430;6.806;2023-05-20T12:29:41;67275.25;;;16.96;100.00
46614;BME280;32338;50.430;6.806;2023-05-20T12:32:08;67255.03;;;16.80;100.00
46614;BME280;32338;50.430;6.806;2023-05-20T12:34:34;67211.03;;;16.42;100.00
46614;BME280;32338;50.430;6.806;2023-05-20T12:37:01;67203.09;;;16.35;100.00
46614;BME280;32338;50.430;6.806;2023-05-20T12:39:27;67205.19;;;16.34;100.00
46614;BME280;32338;50.430;6.806;2023-05-20T12:41:54;67234.06;;;16.61;100.00
46614;BME280;32338;50.430;6.806;2023-05-20T12:44:20;67261.25;;;16.85;100.00
46614;BME280;32338;50.430;6.806;2023-05-20T12:46:48;67278.44;;;17.04;100.00
46614;BME280;32338;50.430;6.806;2023-05-20T12:49:15;67277.31;;;17.02;100.00
46614;BME280;32338;50.430;6.806;2023-05-20T12:51:41;67283.19;;;17.03;100.00
46614;BME280;32338;50.430;6.806;2023-05-20T12:54:08;67270.34;;;16.94;100.00
46614;BME280;32338;50.430;6.806;2023-05-20T12:56:34;67253.50;;;16.81;100.00
46614;BME280;32338;50.430;6.806;2023-05-20T12:59:01;67226.16;;;16.53;100.00